Heat Index SAI AWOS Graphical Display Untitled Document
Bertrand Chaffee Hospital Heliport (2NK6) Springville, New York, USA
220
23:46
23/01/2018
06
18
220V290
29.64
N/A
1420
34(F), 1(C)
33(F), 1(C)
29 F
94%
FEW004 BKN012 OVC018
8
N/A
0"
N/A
23:46 zulu Wind 220 at 06 Knots, Gusting 18 Knots, Altimeter 29.64
METAR K2NK6 232346Z AUTO 22006G18KT 220V290 8SM FEW004 BKN012 OVC018 01/01 A2964 A02 P0000
METAR:
FAA Disclaimer--Advisory Use ONLY, not for flight info--
INFO:
Wind Direction:
Wind Speed:
Wind Gust:
Wind Variable:
Altimeter:
Dens Alt:
Elev:
Temp:
Dwpt:
Wind Chill
Rel Humidity:
Ceiling:
Visibility:
Prsnt Wea:
PCPN:
Remarks:
How to read the WebPage